aviador You're here:

YAYE Decoded Metar

AYERS ROCK in _UNIDENTIFIED
Report Time2018-01-23 03:00:00
UTC Time2018-01-23 03:59:11
Flight Rules vfr VFR
Wind090° at 05 kt
W.Decomp.*RWY 13: 3.6 kt HW 3.5 kt LCW
W.Rank090° ranks 3
Current wind is below 090° avg. (9.6)
Visibility9999 m
Phenomena:N/A
Clouds:N/A
Expected CloudBase > 12,800 ft AGL from Temp-Dew spread
CeilingNone
Temp39°C (ISA +27)
Dew Point07°C (14% RH)
Heat Index36.7°C
AAT36.4°C
QNH1007 hPa
Density Alt5,016 ft
Elevation1,627 ft
Report Wrong Elevation
Raw Report
YAYE 230300Z AUTO 09005KT 9999 // NCD 39/07 Q1007=

Extra information for YAYE:More info

Metar Taf Metar & Taf Last 4 Metars F.Rules Stats Wind Profile Meteogram Temp Stats Airport Information Weather charts Add Link Nearby VenuesMetar ALERT Operation Metar Decoded Social comments